Time;durP1;ratioP1;P1;durP2;ratioP2;P2;SDS_P1;SDS_P2;PMS_P1;PMS_P2;Temp;Humidity;BMP_temperature;BMP_pressure;BME280_temperature;BME280_humidity;BME280_pressure;Samples;Min_cycle;Max_cycle;Signal;HPM_P1;HPM_P2
2023/09/16 00:01:12;;;;;;;7.80;4.60;;;11.20;1.00;;;;;;5044175;28;20032;-78
2023/09/16 00:03:38;;;;;;;6.50;4.75;;;11.20;1.00;;;;;;5052462;28;20627;-78
2023/09/16 00:06:04;;;;;;;6.80;3.97;;;11.20;1.00;;;;;;5045147;28;20117;-79
2023/09/16 00:08:32;;;;;;;4.65;3.63;;;11.10;1.00;;;;;;5025457;28;20055;-78
2023/09/16 00:10:58;;;;;;;5.22;4.10;;;11.10;1.00;;;;;;5054603;28;20096;-79
2023/09/16 00:13:24;;;;;;;6.50;4.22;;;11.00;1.00;;;;;;5041896;28;20047;-78
2023/09/16 00:15:49;;;;;;;7.05;4.63;;;11.00;1.00;;;;;;5058882;28;20044;-79
2023/09/16 00:18:18;;;;;;;5.00;4.13;;;10.90;1.00;;;;;;5071646;28;20052;-79
2023/09/16 00:20:48;;;;;;;6.70;4.68;;;10.90;1.00;;;;;;5056860;28;20084;-79
2023/09/16 00:23:14;;;;;;;6.55;5.03;;;10.90;1.00;;;;;;5058859;28;20052;-78
2023/09/16 00:25:39;;;;;;;3.70;3.13;;;10.90;1.00;;;;;;5063913;28;20391;-79
2023/09/16 00:28:08;;;;;;;3.25;2.50;;;10.90;1.00;;;;;;5053772;28;20037;-78
2023/09/16 00:30:35;;;;;;;2.58;2.17;;;10.90;1.00;;;;;;5044265;28;20040;-78
2023/09/16 00:33:03;;;;;;;2.78;1.90;;;11.00;1.00;;;;;;5064263;28;20044;-80
2023/09/16 00:35:29;;;;;;;3.08;2.60;;;11.00;1.00;;;;;;5056622;28;20068;-79
2023/09/16 00:37:54;;;;;;;4.63;2.80;;;11.00;1.00;;;;;;5048708;28;20040;-79
2023/09/16 00:40:20;;;;;;;3.42;2.72;;;10.90;1.00;;;;;;5043057;28;20581;-79
2023/09/16 00:42:46;;;;;;;5.25;2.97;;;10.80;1.00;;;;;;5041142;28;20040;-79
2023/09/16 00:45:12;;;;;;;5.32;3.47;;;10.80;1.00;;;;;;5060678;28;20391;-80
2023/09/16 00:47:40;;;;;;;4.88;2.90;;;10.80;1.00;;;;;;5032130;28;20045;-79
2023/09/16 00:50:07;;;;;;;3.30;2.28;;;10.80;1.00;;;;;;5034556;28;20045;-79
2023/09/16 00:52:35;;;;;;;2.08;1.83;;;10.80;1.00;;;;;;5052619;28;20133;-78
2023/09/16 00:55:01;;;;;;;3.05;2.22;;;10.80;1.00;;;;;;5042673;28;20545;-79
2023/09/16 00:57:27;;;;;;;2.45;1.95;;;10.80;1.00;;;;;;5040536;28;20056;-79
2023/09/16 00:59:53;;;;;;;3.50;1.90;;;10.80;1.00;;;;;;5046146;28;20045;-79
2023/09/16 01:02:19;;;;;;;2.75;2.28;;;10.80;1.00;;;;;;5046071;28;20041;-79
2023/09/16 01:04:46;;;;;;;2.63;2.00;;;10.70;1.00;;;;;;5043783;28;20037;-79
2023/09/16 01:07:14;;;;;;;2.40;2.20;;;10.70;1.00;;;;;;5024586;28;20084;-79
2023/09/16 01:09:41;;;;;;;4.95;2.75;;;10.60;1.00;;;;;;5045766;28;20121;-79
2023/09/16 01:12:10;;;;;;;2.85;2.40;;;10.70;1.00;;;;;;5022749;28;20068;-79
2023/09/16 01:14:37;;;;;;;3.58;2.78;;;10.60;1.00;;;;;;5042411;28;20040;-79
2023/09/16 01:17:02;;;;;;;2.97;2.60;;;10.50;1.00;;;;;;5037256;28;20021;-78
2023/09/16 01:19:50;;;;;;;3.22;2.63;;;10.50;1.00;;;;;;5048625;28;20124;-79
2023/09/16 01:22:17;;;;;;;4.10;2.70;;;10.50;1.00;;;;;;5049650;28;20048;-79
2023/09/16 01:24:50;;;;;;;2.88;2.55;;;10.50;1.00;;;;;;5029876;28;20041;-78
2023/09/16 01:27:15;;;;;;;5.05;2.60;;;10.60;1.00;;;;;;5044418;28;20068;-79
2023/09/16 01:29:41;;;;;;;2.78;2.42;;;10.60;1.00;;;;;;5044025;28;20056;-79
2023/09/16 01:32:08;;;;;;;3.67;2.53;;;10.50;1.00;;;;;;5062364;28;20114;-79
2023/09/16 01:34:44;;;;;;;2.78;2.25;;;10.60;1.00;;;;;;5043003;28;20076;-79
2023/09/16 01:37:20;;;;;;;3.40;2.75;;;10.60;1.00;;;;;;5049481;28;20033;-79
2023/09/16 01:39:48;;;;;;;;;;;10.60;1.50;;;;;;5045704;28;20048;-81
2023/09/16 01:42:15;;;;;;;4.18;2.70;;;10.60;11.60;;;;;;5047558;28;20345;-80
2023/09/16 01:44:41;;;;;;;3.13;2.60;;;10.70;12.40;;;;;;5061005;28;20478;-79
2023/09/16 01:47:07;;;;;;;3.42;2.75;;;10.80;6.70;;;;;;5043124;28;20088;-79
2023/09/16 01:49:33;;;;;;;4.22;3.05;;;10.80;6.60;;;;;;5062574;28;20044;-78
2023/09/16 01:51:58;;;;;;;4.32;3.13;;;10.80;5.50;;;;;;5059435;28;20490;-79
2023/09/16 01:54:24;;;;;;;3.20;2.63;;;10.80;3.40;;;;;;5065332;28;20429;-79
2023/09/16 01:56:50;;;;;;;7.13;3.58;;;10.80;2.60;;;;;;5046328;28;20414;-79
2023/09/16 01:59:15;;;;;;;5.05;3.45;;;10.80;3.70;;;;;;5060803;28;20041;-80
2023/09/16 02:01:42;;;;;;;4.78;3.60;;;10.80;5.00;;;;;;5058070;28;20039;-80
2023/09/16 02:04:08;;;;;;;5.55;4.10;;;10.80;5.00;;;;;;5066032;28;20044;-79
2023/09/16 02:06:34;;;;;;;4.32;3.55;;;10.70;5.30;;;;;;5062583;28;20037;-79
2023/09/16 02:08:59;;;;;;;4.78;3.00;;;10.70;3.30;;;;;;5045302;28;20047;-79
2023/09/16 02:11:25;;;;;;;7.80;3.70;;;10.70;7.00;;;;;;5059117;28;20052;-81
2023/09/16 02:13:51;;;;;;;3.17;2.65;;;10.70;6.00;;;;;;5063930;28;20032;-80
2023/09/16 02:16:16;;;;;;;3.10;2.60;;;10.70;8.30;;;;;;5072565;28;20044;-80
2023/09/16 02:18:42;;;;;;;3.17;2.40;;;10.70;9.40;;;;;;5071530;28;20096;-80
2023/09/16 02:21:08;;;;;;;3.00;2.35;;;10.60;10.10;;;;;;5064228;28;20047;-81
2023/09/16 02:23:34;;;;;;;2.63;2.20;;;10.60;8.40;;;;;;5040259;28;20036;-80
2023/09/16 02:26:01;;;;;;;2.65;2.20;;;10.50;11.00;;;;;;5070475;28;20386;-80
2023/09/16 02:28:26;;;;;;;2.78;2.53;;;10.50;11.20;;;;;;5065362;28;20076;-80
2023/09/16 02:30:52;;;;;;;3.22;2.70;;;10.50;14.20;;;;;;5046258;28;20052;-81
2023/09/16 02:33:18;;;;;;;3.00;2.60;;;10.50;15.30;;;;;;5061506;28;20113;-81
2023/09/16 02:35:43;;;;;;;3.22;2.60;;;10.40;14.60;;;;;;5061436;28;20040;-79
2023/09/16 02:38:09;;;;;;;4.70;3.03;;;10.40;19.90;;;;;;5062993;28;20036;-79
2023/09/16 02:40:41;;;;;;;4.03;2.90;;;10.40;20.50;;;;;;5064681;28;20051;-80
2023/09/16 02:43:08;;;;;;;3.60;2.80;;;10.40;21.30;;;;;;5060422;28;20040;-80
2023/09/16 02:45:43;;;;;;;3.78;3.03;;;10.40;21.40;;;;;;5045869;28;20066;-80
2023/09/16 02:48:09;;;;;;;5.20;3.53;;;10.40;20.20;;;;;;5045147;28;20037;-79
2023/09/16 02:50:39;;;;;;;4.07;3.00;;;10.30;21.40;;;;;;5063523;28;20286;-80
2023/09/16 02:53:05;;;;;;;5.00;3.58;;;10.30;23.90;;;;;;5063929;28;20074;-80
2023/09/16 02:55:34;;;;;;;5.90;3.65;;;10.20;24.40;;;;;;5046430;28;20044;-79
2023/09/16 02:58:00;;;;;;;4.35;3.13;;;10.20;26.80;;;;;;5063145;28;20071;-81
2023/09/16 03:00:26;;;;;;;4.38;3.28;;;10.20;30.40;;;;;;5030481;28;20040;-80
2023/09/16 03:02:51;;;;;;;3.60;2.90;;;10.20;32.00;;;;;;5049746;28;20043;-80
2023/09/16 03:05:17;;;;;;;4.43;3.45;;;10.20;32.20;;;;;;5043000;28;20047;-80
2023/09/16 03:07:46;;;;;;;4.13;3.30;;;10.20;32.70;;;;;;5063125;28;20119;-80
2023/09/16 03:10:12;;;;;;;3.85;3.13;;;10.20;37.40;;;;;;5061997;28;20409;-80
2023/09/16 03:12:37;;;;;;;4.50;3.17;;;10.20;36.70;;;;;;5050521;28;20100;-80
2023/09/16 03:15:04;;;;;;;4.88;3.20;;;10.20;34.50;;;;;;5066891;28;20074;-80
2023/09/16 03:17:29;;;;;;;4.05;3.03;;;10.20;35.00;;;;;;5050026;28;20059;-80
2023/09/16 03:19:56;;;;;;;5.80;3.72;;;10.10;36.80;;;;;;5069505;28;20032;-80
2023/09/16 03:22:22;;;;;;;4.35;3.05;;;10.10;37.10;;;;;;5065479;28;20024;-80
2023/09/16 03:24:48;;;;;;;4.78;3.17;;;10.10;36.90;;;;;;5049155;28;20048;-80
2023/09/16 03:27:14;;;;;;;4.50;3.35;;;10.10;38.50;;;;;;5079941;28;20047;-80
2023/09/16 03:29:40;;;;;;;5.13;3.35;;;10.10;39.30;;;;;;5053408;28;20043;-80
2023/09/16 03:32:05;;;;;;;4.55;2.88;;;10.10;39.40;;;;;;5062021;28;20085;-80
2023/09/16 03:34:31;;;;;;;4.30;3.55;;;10.00;40.10;;;;;;5042834;28;20032;-80
2023/09/16 03:36:56;;;;;;;6.50;4.03;;;10.00;39.40;;;;;;5063172;28;20032;-80
2023/09/16 03:39:22;;;;;;;5.22;4.32;;;10.00;42.50;;;;;;5048198;28;20045;-80
2023/09/16 03:41:48;;;;;;;6.20;3.47;;;10.00;40.80;;;;;;5042910;28;20250;-80
2023/09/16 03:44:15;;;;;;;6.43;4.18;;;9.90;40.60;;;;;;5024888;28;20698;-79
2023/09/16 03:46:41;;;;;;;7.38;4.88;;;9.90;41.20;;;;;;5041339;28;20048;-80
2023/09/16 03:49:07;;;;;;;5.95;4.40;;;9.90;42.10;;;;;;5032189;28;20041;-80
2023/09/16 03:51:37;;;;;;;5.50;4.40;;;9.90;46.90;;;;;;5033322;28;20052;-80
2023/09/16 03:54:04;;;;;;;3.92;2.78;;;9.90;55.00;;;;;;5027039;28;20045;-80
2023/09/16 03:56:30;;;;;;;4.03;2.97;;;10.00;58.70;;;;;;5024257;28;20040;-80
2023/09/16 03:58:55;;;;;;;3.92;2.55;;;10.00;55.80;;;;;;5023719;28;20075;-80
2023/09/16 04:01:21;;;;;;;3.78;2.97;;;10.00;52.50;;;;;;5046284;28;20039;-80
2023/09/16 04:03:47;;;;;;;3.40;2.70;;;10.00;50.20;;;;;;5041422;28;20041;-80
2023/09/16 04:06:14;;;;;;;4.80;3.45;;;9.90;49.30;;;;;;5026045;28;20037;-80
2023/09/16 04:08:40;;;;;;;4.85;3.35;;;10.00;48.70;;;;;;5022373;28;20041;-80
2023/09/16 04:11:06;;;;;;;3.55;2.70;;;10.00;51.20;;;;;;5037522;28;20060;-79
2023/09/16 04:13:32;;;;;;;4.38;3.28;;;9.90;47.10;;;;;;5032493;28;20041;-79
2023/09/16 04:15:58;;;;;;;5.05;4.00;;;9.90;50.00;;;;;;5021033;28;20040;-80
2023/09/16 04:18:23;;;;;;;6.55;3.85;;;9.90;55.80;;;;;;5021871;28;20076;-79
2023/09/16 04:20:50;;;;;;;4.38;3.75;;;9.90;58.10;;;;;;5021955;28;20045;-79
2023/09/16 04:23:16;;;;;;;5.28;3.95;;;9.90;59.80;;;;;;5019367;28;20069;-80
2023/09/16 04:25:42;;;;;;;5.85;4.32;;;9.90;60.80;;;;;;5032470;28;20032;-79
2023/09/16 04:28:08;;;;;;;5.78;4.75;;;9.90;55.90;;;;;;5027080;28;20045;-80
2023/09/16 04:30:49;;;;;;;8.70;4.78;;;9.90;57.30;;;;;;5019939;28;20041;-80
2023/09/16 04:33:16;;;;;;;6.25;4.88;;;9.90;59.00;;;;;;5037406;28;20051;-79
2023/09/16 04:35:46;;;;;;;9.57;5.57;;;9.80;56.70;;;;;;5042529;28;20140;-80
2023/09/16 04:38:13;;;;;;;6.45;4.90;;;9.80;54.60;;;;;;5018238;28;20042;-80
2023/09/16 04:40:41;;;;;;;5.82;4.43;;;9.80;61.60;;;;;;5025625;28;20111;-80
2023/09/16 04:43:07;;;;;;;6.45;5.38;;;9.80;63.80;;;;;;5044351;28;20037;-80
2023/09/16 04:45:33;;;;;;;5.80;4.95;;;9.70;63.60;;;;;;5047867;28;20052;-80
2023/09/16 04:47:59;;;;;;;6.00;5.40;;;9.80;67.10;;;;;;5055616;28;20096;-80
2023/09/16 04:50:25;;;;;;;5.25;4.43;;;9.80;69.40;;;;;;5042468;28;20057;-79
2023/09/16 04:52:51;;;;;;;5.07;4.32;;;9.70;69.60;;;;;;5038206;28;20164;-80
2023/09/16 04:55:16;;;;;;;5.03;4.53;;;9.70;65.50;;;;;;5043774;28;20045;-80
2023/09/16 04:57:42;;;;;;;6.43;5.53;;;9.70;66.80;;;;;;5044574;28;20102;-79
2023/09/16 05:00:08;;;;;;;6.53;5.50;;;9.70;71.10;;;;;;5042504;28;20036;-80
2023/09/16 05:02:34;;;;;;;6.30;5.30;;;9.70;74.20;;;;;;5064653;28;20453;-80
2023/09/16 05:05:00;;;;;;;6.32;5.20;;;9.70;77.60;;;;;;5073969;28;20032;-81
2023/09/16 05:07:27;;;;;;;7.63;5.72;;;9.70;76.70;;;;;;5055760;28;20505;-80
2023/09/16 05:09:53;;;;;;;6.43;5.10;;;9.70;83.80;;;;;;5041986;28;20506;-80
2023/09/16 05:12:21;;;;;;;5.28;4.78;;;9.70;84.30;;;;;;5028814;28;20587;-80
2023/09/16 05:14:48;;;;;;;5.60;4.90;;;9.70;81.90;;;;;;5057553;28;20036;-79
2023/09/16 05:17:14;;;;;;;5.70;5.07;;;9.60;81.70;;;;;;5059610;28;20092;-80
2023/09/16 05:19:40;;;;;;;4.78;4.38;;;9.60;85.80;;;;;;5042614;28;20079;-79
2023/09/16 05:22:05;;;;;;;6.05;5.18;;;9.60;87.40;;;;;;5043803;28;20032;-78
2023/09/16 05:24:34;;;;;;;5.63;4.70;;;9.60;90.50;;;;;;5044558;28;20070;-80
2023/09/16 05:26:59;;;;;;;4.90;4.38;;;9.70;91.40;;;;;;5042358;28;20117;-79
2023/09/16 05:29:25;;;;;;;4.97;4.40;;;9.70;92.00;;;;;;5029719;28;20044;-79
2023/09/16 05:31:53;;;;;;;7.47;5.40;;;9.60;90.90;;;;;;5055796;28;20056;-79
2023/09/16 05:34:18;;;;;;;6.40;5.70;;;9.60;90.10;;;;;;5056739;28;20047;-82
2023/09/16 05:36:44;;;;;;;7.10;5.88;;;9.60;91.50;;;;;;5043707;28;20174;-80
2023/09/16 05:39:09;;;;;;;7.75;6.25;;;9.60;94.00;;;;;;5057750;28;20043;-79
2023/09/16 05:41:35;;;;;;;7.20;5.82;;;9.60;94.40;;;;;;5032643;28;20127;-80
2023/09/16 05:44:01;;;;;;;7.63;5.65;;;9.60;94.90;;;;;;5052403;28;20060;-80
2023/09/16 05:46:27;;;;;;;5.85;5.13;;;9.60;96.50;;;;;;5042717;28;20043;-80
2023/09/16 05:49:06;;;;;;;7.53;6.00;;;9.60;96.40;;;;;;5037450;28;20040;-80
2023/09/16 05:51:32;;;;;;;7.32;5.78;;;9.60;97.80;;;;;;5050889;28;20502;-79
2023/09/16 05:53:58;;;;;;;7.57;6.22;;;9.60;99.90;;;;;;5052933;28;20066;-81
2023/09/16 05:56:24;;;;;;;7.25;6.05;;;9.70;99.90;;;;;;5052713;28;20136;-80
2023/09/16 05:58:49;;;;;;;7.40;6.13;;;9.60;99.90;;;;;;5036090;28;20542;-79
2023/09/16 06:01:15;;;;;;;7.72;6.40;;;9.70;99.90;;;;;;5040844;28;20040;-80
2023/09/16 06:03:41;;;;;;;9.80;7.55;;;9.80;99.90;;;;;;5034283;28;20518;-80
2023/09/16 06:06:06;;;;;;;8.23;6.57;;;10.00;99.90;;;;;;5043138;28;20067;-80
2023/09/16 06:08:32;;;;;;;8.27;5.75;;;10.10;99.90;;;;;;5036250;28;20045;-80
2023/09/16 06:10:58;;;;;;;6.93;5.97;;;10.30;99.90;;;;;;5040448;28;20502;-81
2023/09/16 06:13:23;;;;;;;6.80;6.10;;;10.50;99.90;;;;;;5054871;28;20040;-82
2023/09/16 06:15:49;;;;;;;5.13;4.53;;;10.70;99.90;;;;;;5061458;28;20044;-82
2023/09/16 06:18:15;;;;;;;5.75;5.18;;;10.80;99.90;;;;;;5062418;28;20043;-82
2023/09/16 06:20:41;;;;;;;7.10;5.22;;;11.00;99.90;;;;;;5062704;28;20040;-81
2023/09/16 06:23:07;;;;;;;5.25;4.75;;;11.00;99.90;;;;;;5045429;28;20671;-82
2023/09/16 06:25:34;;;;;;;6.25;4.75;;;11.10;99.90;;;;;;5061116;28;20048;-82
2023/09/16 06:27:59;;;;;;;5.85;5.25;;;11.10;99.90;;;;;;5038942;28;20050;-81
2023/09/16 06:30:25;;;;;;;6.05;5.22;;;11.10;99.90;;;;;;5038640;28;20044;-82
2023/09/16 06:32:55;;;;;;;6.35;5.50;;;11.10;99.90;;;;;;5054736;28;20056;-82
2023/09/16 06:35:21;;;;;;;6.47;5.38;;;11.10;99.90;;;;;;5041301;28;20097;-81
2023/09/16 06:37:47;;;;;;;6.50;5.80;;;11.10;99.90;;;;;;5030178;28;20039;-82
2023/09/16 06:40:12;;;;;;;6.57;5.75;;;11.10;99.90;;;;;;5024333;28;20049;-82
2023/09/16 06:42:38;;;;;;;9.23;7.38;;;11.10;99.90;;;;;;5018769;28;20535;-84
2023/09/16 06:45:04;;;;;;;8.55;7.38;;;11.10;99.90;;;;;;5038490;28;20258;-82
2023/09/16 06:47:29;;;;;;;9.90;7.95;;;11.20;99.90;;;;;;5028260;28;20045;-82
2023/09/16 06:49:56;;;;;;;11.50;8.35;;;11.30;99.90;;;;;;5010702;28;20033;-82
2023/09/16 06:52:22;;;;;;;11.73;9.07;;;11.40;99.90;;;;;;5038506;28;20047;-81
2023/09/16 06:54:48;;;;;;;11.57;9.45;;;11.40;99.90;;;;;;5040358;28;20078;-82
2023/09/16 06:57:15;;;;;;;10.45;8.85;;;11.50;99.90;;;;;;5027954;28;20044;-82
2023/09/16 06:59:40;;;;;;;12.05;9.43;;;11.60;99.90;;;;;;5017140;28;20095;-82
2023/09/16 07:02:06;;;;;;;12.77;9.93;;;11.70;99.90;;;;;;5016529;28;20044;-81
2023/09/16 07:04:32;;;;;;;13.77;10.48;;;11.80;99.90;;;;;;5016409;28;20036;-82
2023/09/16 07:06:57;;;;;;;13.75;10.63;;;11.90;99.90;;;;;;5014089;28;20552;-81
2023/09/16 07:09:23;;;;;;;15.95;11.10;;;12.00;99.90;;;;;;5018657;28;20965;-82
2023/09/16 07:11:49;;;;;;;18.55;13.07;;;12.20;99.90;;;;;;5030231;28;20057;-82
2023/09/16 07:14:14;;;;;;;16.98;12.63;;;12.30;99.90;;;;;;5031274;28;20052;-82
2023/09/16 07:16:40;;;;;;;17.88;12.20;;;12.50;99.90;;;;;;5038791;28;20044;-81
2023/09/16 07:19:07;;;;;;;17.67;12.27;;;12.60;99.90;;;;;;5036563;28;20052;-82
2023/09/16 07:21:33;;;;;;;18.45;13.40;;;12.70;99.90;;;;;;5026584;28;20042;-82
2023/09/16 07:24:01;;;;;;;18.80;13.70;;;12.90;99.90;;;;;;5035868;28;20055;-82
2023/09/16 07:26:28;;;;;;;20.33;15.05;;;12.90;99.90;;;;;;5027379;28;20036;-82
2023/09/16 07:28:54;;;;;;;22.08;14.48;;;13.10;99.90;;;;;;5017144;28;20041;-81
2023/09/16 07:31:19;;;;;;;22.10;14.80;;;13.20;99.90;;;;;;5046788;28;20065;-82
2023/09/16 07:33:46;;;;;;;20.38;14.68;;;13.50;99.90;;;;;;5020926;28;20034;-81
2023/09/16 07:36:11;;;;;;;21.13;14.60;;;13.60;99.90;;;;;;5017358;28;20751;-82
2023/09/16 07:38:37;;;;;;;20.58;14.57;;;13.80;99.90;;;;;;5045451;28;20064;-81
2023/09/16 07:41:02;;;;;;;19.80;14.27;;;14.10;99.90;;;;;;5025075;28;20076;-82
2023/09/16 07:43:28;;;;;;;20.25;14.65;;;14.30;99.90;;;;;;5056487;28;20044;-82
2023/09/16 07:45:54;;;;;;;19.55;14.05;;;14.60;99.90;;;;;;5011852;28;20044;-82
2023/09/16 07:48:19;;;;;;;20.52;13.10;;;15.00;99.90;;;;;;5012980;28;20045;-82
2023/09/16 07:50:47;;;;;;;20.38;12.80;;;15.30;99.90;;;;;;5041451;28;20040;-81
2023/09/16 07:53:12;;;;;;;20.20;13.85;;;15.70;99.90;;;;;;5028444;28;20102;-82
2023/09/16 07:55:41;;;;;;;18.40;13.85;;;16.10;99.90;;;;;;5023314;28;20492;-82
2023/09/16 07:58:07;;;;;;;17.75;12.52;;;16.40;99.90;;;;;;5010641;28;20044;-83
2023/09/16 08:00:33;;;;;;;15.25;11.23;;;16.80;99.90;;;;;;5028027;28;20048;-82
2023/09/16 08:02:59;;;;;;;12.95;10.10;;;17.10;99.90;;;;;;5022317;28;20557;-82
2023/09/16 08:05:26;;;;;;;16.23;10.80;;;17.50;92.60;;;;;;5023672;28;20052;-82
2023/09/16 08:07:51;;;;;;;13.20;10.05;;;17.70;62.70;;;;;;5020812;28;20052;-82
2023/09/16 08:10:17;;;;;;;14.02;10.20;;;17.90;22.50;;;;;;5009127;28;20045;-83
2023/09/16 08:12:43;;;;;;;16.80;9.77;;;18.00;1.00;;;;;;5025582;28;20049;-83
2023/09/16 08:15:09;;;;;;;14.65;9.05;;;18.10;1.00;;;;;;5026124;28;20052;-80
2023/09/16 08:17:37;;;;;;;11.48;8.68;;;18.20;1.00;;;;;;5010563;28;20044;-81
2023/09/16 08:20:07;;;;;;;10.73;8.45;;;18.40;1.00;;;;;;5026805;28;20041;-81
2023/09/16 08:22:32;;;;;;;8.85;7.13;;;18.60;1.00;;;;;;5012591;28;20087;-81
2023/09/16 08:24:58;;;;;;;10.63;8.35;;;19.00;1.00;;;;;;5025110;28;21047;-82
2023/09/16 08:27:25;;;;;;;9.68;7.95;;;19.20;99.90;;;;;;5018445;28;20400;-81
2023/09/16 08:29:52;;;;;;;9.23;7.35;;;19.60;99.90;;;;;;5007095;28;20041;-82
2023/09/16 08:32:18;;;;;;;9.98;7.20;;;19.80;99.90;;;;;;5027636;28;20076;-81
2023/09/16 08:34:44;;;;;;;8.90;7.18;;;20.00;99.90;;;;;;5028906;28;20207;-82
2023/09/16 08:37:13;;;;;;;8.45;7.18;;;20.10;99.90;;;;;;5006992;28;20071;-82
2023/09/16 08:39:39;;;;;;;9.82;7.72;;;20.10;54.70;;;;;;5010634;28;20504;-82
2023/09/16 08:42:26;;;;;;;9.15;7.65;;;20.10;14.60;;;;;;5034800;28;20041;-81
2023/09/16 08:44:55;;;;;;;10.35;7.20;;;20.10;1.00;;;;;;5032236;28;20056;-82
2023/09/16 08:47:28;;;;;;;10.02;7.13;;;20.10;1.00;;;;;;5028525;28;20426;-82
2023/09/16 08:49:59;;;;;;;8.93;6.90;;;19.90;1.00;;;;;;5048584;28;20040;-84
2023/09/16 08:52:29;;;;;;;8.70;6.70;;;19.80;1.00;;;;;;5049112;28;20054;-83
2023/09/16 08:54:56;;;;;;;9.70;7.00;;;19.50;1.00;;;;;;5044549;28;20076;-81
2023/09/16 08:57:22;;;;;;;10.00;6.35;;;19.30;1.00;;;;;;5057895;28;20049;-82
2023/09/16 08:59:48;;;;;;;7.60;5.97;;;19.20;5.90;;;;;;5050866;28;20039;-82
2023/09/16 09:02:15;;;;;;;9.20;6.35;;;19.10;4.90;;;;;;5030699;28;20423;-82
2023/09/16 09:04:42;;;;;;;9.00;6.55;;;19.10;23.60;;;;;;5069359;28;20486;-82
2023/09/16 09:07:08;;;;;;;10.38;6.90;;;19.10;49.70;;;;;;5037746;28;20033;-82
2023/09/16 09:09:34;;;;;;;9.82;6.93;;;19.10;84.90;;;;;;5037608;28;20051;-82
2023/09/16 09:12:02;;;;;;;9.73;6.97;;;19.10;99.90;;;;;;5060951;28;20100;-82
2023/09/16 09:14:30;;;;;;;10.23;6.68;;;19.10;99.90;;;;;;5069677;28;20032;-82
2023/09/16 09:17:00;;;;;;;9.02;6.53;;;19.20;90.10;;;;;;5042108;28;20048;-82
2023/09/16 09:19:26;;;;;;;10.32;7.03;;;19.30;85.00;;;;;;5061166;28;20052;-80
2023/09/16 09:21:56;;;;;;;9.50;6.30;;;19.40;68.80;;;;;;5039996;28;20071;-82
2023/09/16 09:24:21;;;;;;;9.32;6.50;;;19.50;44.60;;;;;;5052813;28;20041;-82
2023/09/16 09:26:47;;;;;;;9.32;6.47;;;19.60;20.30;;;;;;5036725;28;20044;-81
2023/09/16 09:29:13;;;;;;;10.05;6.25;;;19.80;1.00;;;;;;5050653;28;20497;-81
2023/09/16 09:31:40;;;;;;;8.02;6.03;;;20.00;1.00;;;;;;5049645;28;20054;-82
2023/09/16 09:34:17;;;;;;;6.65;5.00;;;20.40;1.00;;;;;;5046502;28;20032;-81
2023/09/16 09:36:47;;;;;;;7.05;5.28;;;21.80;99.90;;;;;;5035713;28;20060;-82
2023/09/16 09:39:13;;;;;;;7.80;4.80;;;23.40;99.90;;;;;;5028001;28;20174;-80
2023/09/16 09:41:45;;;;;;;7.90;4.35;;;24.60;78.60;;;;;;5042479;28;20064;-81
2023/09/16 09:44:11;;;;;;;7.10;4.45;;;25.70;1.00;;;;;;5050368;28;20049;-81
2023/09/16 09:46:37;;;;;;;5.43;4.10;;;26.50;1.00;;;;;;5034219;28;20033;-81
2023/09/16 09:49:04;;;;;;;6.13;4.00;;;27.00;1.00;;;;;;5053481;28;20429;-82
2023/09/16 09:51:29;;;;;;;6.93;4.10;;;27.30;1.00;;;;;;5043828;28;20041;-83
2023/09/16 09:53:55;;;;;;;4.30;3.65;;;27.90;1.00;;;;;;5030629;28;20040;-83
2023/09/16 09:56:21;;;;;;;7.57;3.88;;;28.40;1.00;;;;;;5037962;28;20664;-83
2023/09/16 09:58:47;;;;;;;6.50;3.70;;;29.00;1.00;;;;;;5028076;28;20047;-83
2023/09/16 10:01:13;;;;;;;4.15;3.60;;;29.40;1.00;;;;;;5051502;28;20548;-83
2023/09/16 10:03:45;;;;;;;4.90;4.03;;;29.80;1.00;;;;;;5048390;28;20060;-83
2023/09/16 10:06:16;;;;;;;3.80;3.40;;;30.20;1.00;;;;;;5065241;28;20052;-83
2023/09/16 10:08:42;;;;;;;5.57;3.90;;;30.70;1.00;;;;;;5028530;28;20037;-83
2023/09/16 10:11:08;;;;;;;5.53;3.55;;;31.00;1.00;;;;;;5034972;28;20094;-83
2023/09/16 10:13:34;;;;;;;4.72;3.90;;;31.20;1.00;;;;;;5035221;28;20048;-83
2023/09/16 10:16:01;;;;;;;5.20;4.18;;;31.50;1.00;;;;;;5026088;28;20388;-84
2023/09/16 10:18:30;;;;;;;4.78;3.50;;;31.50;1.00;;;;;;5037196;28;20490;-83
2023/09/16 10:20:57;;;;;;;6.38;3.70;;;31.60;1.00;;;;;;5037324;28;20071;-83
2023/09/16 10:23:22;;;;;;;4.05;3.20;;;32.00;1.00;;;;;;5047719;28;20119;-84
2023/09/16 10:25:50;;;;;;;4.15;3.40;;;32.10;1.00;;;;;;5048421;28;20131;-83
2023/09/16 10:28:17;;;;;;;4.10;3.55;;;32.00;1.00;;;;;;5032715;28;20051;-83
2023/09/16 10:30:43;;;;;;;4.03;3.13;;;31.40;1.00;;;;;;5043954;28;20121;-83
2023/09/16 10:33:10;;;;;;;3.67;3.28;;;31.30;1.00;;;;;;5033205;28;20048;-83
2023/09/16 10:35:41;;;;;;;6.03;3.90;;;31.70;1.00;;;;;;5035261;28;20037;-83
2023/09/16 10:38:08;;;;;;;4.15;3.45;;;32.20;1.00;;;;;;5048826;28;20112;-82
2023/09/16 10:40:34;;;;;;;4.50;3.60;;;32.70;1.00;;;;;;5029921;28;20156;-83
2023/09/16 10:43:04;;;;;;;4.05;3.42;;;33.20;1.00;;;;;;5050343;28;20537;-83
2023/09/16 10:45:31;;;;;;;4.05;3.38;;;33.80;1.00;;;;;;5050403;28;20075;-82
2023/09/16 10:48:01;;;;;;;5.15;3.85;;;34.30;1.00;;;;;;5050343;28;20044;-83
2023/09/16 10:50:30;;;;;;;6.20;3.67;;;34.60;1.00;;;;;;5045569;28;20075;-82
2023/09/16 10:53:03;;;;;;;5.70;3.88;;;34.80;1.00;;;;;;5033105;28;20036;-83
2023/09/16 10:55:40;;;;;;;4.25;3.17;;;34.80;1.00;;;;;;5033256;28;20047;-83
2023/09/16 10:58:12;;;;;;;4.68;2.95;;;35.10;1.00;;;;;;5059516;28;20498;-83
2023/09/16 11:00:44;;;;;;;5.40;3.42;;;35.30;1.00;;;;;;5024463;28;20041;-83
2023/09/16 11:03:15;;;;;;;3.22;2.70;;;35.50;1.00;;;;;;5044962;28;20391;-83
2023/09/16 11:05:41;;;;;;;2.85;2.42;;;35.50;1.00;;;;;;5026966;28;20041;-83
2023/09/16 11:08:07;;;;;;;4.25;2.75;;;35.70;1.00;;;;;;5042271;28;20058;-82
2023/09/16 11:10:34;;;;;;;3.33;2.40;;;35.90;1.00;;;;;;5018658;28;20040;-82
2023/09/16 11:13:00;;;;;;;2.50;2.30;;;35.90;1.00;;;;;;5025726;28;20131;-81
2023/09/16 11:15:35;;;;;;;2.33;2.00;;;36.10;1.00;;;;;;5050669;28;20721;-81
2023/09/16 11:18:02;;;;;;;;;;;36.40;1.00;;;;;;5029997;28;20048;-81
2023/09/16 11:20:32;;;;;;;3.70;2.35;;;36.60;1.00;;;;;;5058034;28;19960;-81
2023/09/16 11:23:07;;;;;;;4.13;2.13;;;36.70;1.00;;;;;;5049585;28;20487;-81
2023/09/16 11:25:35;;;;;;;3.60;2.25;;;37.00;1.00;;;;;;5049449;28;20037;-81
2023/09/16 11:28:03;;;;;;;2.83;1.85;;;37.20;1.00;;;;;;5042084;28;20120;-81
2023/09/16 11:30:32;;;;;;;2.22;1.50;;;37.40;1.00;;;;;;5035778;28;20036;-81
2023/09/16 11:32:58;;;;;;;2.30;1.75;;;37.50;1.00;;;;;;5033645;28;20029;-81
2023/09/16 11:35:28;;;;;;;1.70;1.55;;;37.60;1.00;;;;;;5019476;28;20113;-81
2023/09/16 11:37:54;;;;;;;3.53;1.70;;;37.60;1.00;;;;;;5045539;28;20072;-81
2023/09/16 11:40:27;;;;;;;2.33;1.65;;;37.70;1.00;;;;;;5036343;28;20052;-81
2023/09/16 11:42:57;;;;;;;2.22;1.35;;;37.20;1.00;;;;;;5036006;28;20033;-81
2023/09/16 11:45:24;;;;;;;1.90;1.70;;;37.10;1.00;;;;;;5048765;28;20032;-81
2023/09/16 11:47:50;;;;;;;2.67;1.48;;;37.00;1.00;;;;;;5032563;28;20040;-81
2023/09/16 11:50:23;;;;;;;3.47;1.42;;;37.10;1.00;;;;;;5048936;28;20044;-81
2023/09/16 11:52:49;;;;;;;2.10;1.48;;;37.30;1.00;;;;;;5048505;28;20143;-81
2023/09/16 11:55:16;;;;;;;2.28;1.58;;;37.50;1.00;;;;;;5045648;28;20123;-82
2023/09/16 11:57:41;;;;;;;2.50;1.70;;;37.70;1.00;;;;;;5056935;28;20040;-82
2023/09/16 12:00:09;;;;;;;2.00;1.20;;;37.90;1.00;;;;;;5041616;28;20045;-81
2023/09/16 12:02:35;;;;;;;1.55;1.15;;;37.90;1.00;;;;;;5044214;28;20044;-81
2023/09/16 12:05:02;;;;;;;1.40;1.30;;;38.00;1.00;;;;;;5013884;28;20037;-81
2023/09/16 12:07:32;;;;;;;1.35;1.10;;;37.70;1.00;;;;;;5020004;28;20073;-82
2023/09/16 12:10:02;;;;;;;1.67;1.20;;;37.10;1.00;;;;;;5027743;28;20021;-82
2023/09/16 12:12:28;;;;;;;1.65;0.85;;;36.40;1.00;;;;;;5037539;28;20490;-81
2023/09/16 12:14:55;;;;;;;1.98;1.02;;;35.60;1.00;;;;;;5026671;28;20679;-81
2023/09/16 12:17:23;;;;;;;2.55;1.20;;;34.40;1.00;;;;;;5043880;28;20135;-81
2023/09/16 12:19:53;;;;;;;2.55;1.70;;;33.00;1.00;;;;;;5058908;28;20044;-83
2023/09/16 12:22:19;;;;;;;2.00;1.48;;;32.40;1.00;;;;;;5034201;28;20700;-80
2023/09/16 12:24:45;;;;;;;2.38;1.40;;;32.30;1.00;;;;;;5049894;28;20068;-82
2023/09/16 12:27:12;;;;;;;5.57;1.90;;;32.40;1.00;;;;;;5043553;28;20079;-81
2023/09/16 12:29:38;;;;;;;2.40;1.50;;;32.90;1.00;;;;;;5044287;28;20044;-81
2023/09/16 12:32:11;;;;;;;2.70;1.40;;;33.50;1.00;;;;;;5032737;28;20040;-81
2023/09/16 12:34:37;;;;;;;2.65;1.50;;;34.00;1.00;;;;;;5031274;28;20032;-82
2023/09/16 12:37:05;;;;;;;1.70;1.30;;;34.00;1.00;;;;;;5039131;28;20664;-81
2023/09/16 12:39:35;;;;;;;2.38;1.30;;;33.60;1.00;;;;;;5030279;28;20403;-82
2023/09/16 12:42:03;;;;;;;3.95;1.60;;;33.30;1.00;;;;;;5055534;28;20056;-82
2023/09/16 12:44:35;;;;;;;4.68;2.10;;;33.30;1.00;;;;;;5038291;28;20040;-82
2023/09/16 12:47:03;;;;;;;3.30;1.98;;;33.30;1.00;;;;;;5039415;28;20085;-82
2023/09/16 12:49:29;;;;;;;3.70;1.70;;;33.20;1.00;;;;;;5029285;28;20121;-82